createdAt,value
2018-01-17T00:02:02.508Z,96249.30
2018-01-17T00:04:30.195Z,96243.95
2018-01-17T00:06:57.996Z,96251.89
2018-01-17T00:09:25.663Z,96252.98
2018-01-17T00:11:53.404Z,96240.49
2018-01-17T00:14:21.184Z,96246.01
2018-01-17T00:16:48.805Z,96244.98
2018-01-17T00:19:16.405Z,96241.89
2018-01-17T00:21:44.156Z,96250.49
2018-01-17T00:24:11.797Z,96247.42
2018-01-17T00:26:39.514Z,96245.43
2018-01-17T00:29:07.287Z,96242.02
2018-01-17T00:31:35.106Z,96241.95
2018-01-17T00:34:02.738Z,96239.55
2018-01-17T00:36:30.419Z,96221.96
2018-01-17T00:38:58.055Z,96206.91
2018-01-17T00:41:25.803Z,96207.13
2018-01-17T00:43:53.468Z,96217.45
2018-01-17T00:46:21.090Z,96207.19
2018-01-17T00:48:48.718Z,96206.63
2018-01-17T00:51:16.348Z,96221.37
2018-01-17T00:53:43.978Z,96205.63
2018-01-17T00:56:11.780Z,96203.86
2018-01-17T00:58:39.404Z,96198.18
2018-01-17T01:01:07.218Z,96195.63
2018-01-17T01:03:34.875Z,96189.19
2018-01-17T01:06:02.629Z,96194.77
2018-01-17T01:08:30.394Z,96197.05
2018-01-17T01:10:58.020Z,96192.26
2018-01-17T01:13:25.648Z,96202.81
2018-01-17T01:15:53.298Z,96206.56
2018-01-17T01:18:20.907Z,96213.00
2018-01-17T01:20:48.514Z,96217.89
2018-01-17T01:23:16.298Z,96219.64
2018-01-17T01:25:43.910Z,96230.59
2018-01-17T01:28:11.518Z,96233.39
2018-01-17T01:30:39.138Z,96234.77
2018-01-17T01:33:06.739Z,96224.79
2018-01-17T01:35:34.466Z,96227.02
2018-01-17T01:38:02.103Z,96221.39
2018-01-17T01:40:29.878Z,96222.42
2018-01-17T01:42:57.544Z,96219.94
2018-01-17T01:45:25.238Z,96212.27
2018-01-17T01:47:52.945Z,96221.20
2018-01-17T01:50:20.558Z,96209.38
2018-01-17T01:52:48.195Z,96224.08
2018-01-17T01:55:15.943Z,96219.69
2018-01-17T01:57:43.579Z,96211.59
2018-01-17T02:00:11.178Z,96219.47
2018-01-17T02:02:38.801Z,96221.36
2018-01-17T02:05:06.424Z,96227.28
2018-01-17T02:07:34.020Z,96235.80
2018-01-17T02:10:01.805Z,96230.76
2018-01-17T02:12:29.514Z,96236.19
2018-01-17T02:14:57.135Z,96217.41
2018-01-17T02:17:25.036Z,96230.52
2018-01-17T02:19:52.653Z,96234.31
2018-01-17T02:22:20.289Z,96227.95
2018-01-17T02:24:47.959Z,96226.30
2018-01-17T02:27:15.581Z,96214.20
2018-01-17T02:29:43.269Z,96210.11
2018-01-17T02:32:10.883Z,96222.75
2018-01-17T02:34:38.509Z,96212.66
2018-01-17T02:37:06.125Z,96216.52
2018-01-17T02:42:42.900Z,96228.09
2018-01-17T02:45:10.514Z,96224.62
2018-01-17T02:47:38.219Z,96226.27
2018-01-17T02:50:05.864Z,96212.10
2018-01-17T02:52:33.630Z,96213.45
2018-01-17T02:55:01.246Z,96212.83
2018-01-17T02:57:28.844Z,96203.89
2018-01-17T02:59:56.456Z,96210.54
2018-01-17T03:02:24.106Z,96216.67
2018-01-17T03:04:51.908Z,96206.02
2018-01-17T03:07:19.509Z,96203.50
2018-01-17T03:09:47.216Z,96189.36
2018-01-17T03:12:14.864Z,96183.08
2018-01-17T03:14:42.710Z,96194.78
2018-01-17T03:17:10.334Z,96194.69
2018-01-17T03:19:37.950Z,96194.67
2018-01-17T03:22:05.698Z,96204.87
2018-01-17T03:24:33.311Z,96221.81
2018-01-17T03:27:01.071Z,96225.20
2018-01-17T03:29:28.773Z,96224.16
2018-01-17T03:31:56.416Z,96226.05
2018-01-17T03:34:24.308Z,96232.48
2018-01-17T03:36:51.957Z,96212.98
2018-01-17T03:39:19.645Z,96214.59
2018-01-17T03:41:47.263Z,96204.34
2018-01-17T03:44:14.908Z,96202.59
2018-01-17T03:46:42.540Z,96199.85
2018-01-17T03:49:10.245Z,96211.65
2018-01-17T03:51:37.824Z,96213.84
2018-01-17T03:54:05.438Z,96219.00
2018-01-17T03:56:33.554Z,96217.97
2018-01-17T03:59:01.434Z,96217.58
2018-01-17T04:01:29.141Z,96209.44
2018-01-17T04:03:56.828Z,96211.98
2018-01-17T04:06:24.471Z,96210.95
2018-01-17T04:08:52.100Z,96209.17
2018-01-17T04:11:19.885Z,96214.60
2018-01-17T04:13:47.630Z,96214.16
2018-01-17T04:16:15.345Z,96214.73
2018-01-17T04:18:43.150Z,96228.59
2018-01-17T04:21:11.020Z,96241.72
2018-01-17T04:23:38.634Z,96244.30
2018-01-17T04:26:06.305Z,96251.66
2018-01-17T04:28:34.106Z,96246.93
2018-01-17T04:31:01.990Z,96263.61
2018-01-17T04:33:29.616Z,96268.16
2018-01-17T04:35:57.210Z,96300.15
2018-01-17T04:38:24.886Z,96316.67
2018-01-17T04:40:52.562Z,96328.44
2018-01-17T04:43:20.364Z,96327.63
2018-01-17T04:45:48.014Z,96326.78
2018-01-17T04:48:15.724Z,96321.16
2018-01-17T04:50:43.430Z,96330.42
2018-01-17T04:53:11.085Z,96330.95
2018-01-17T04:55:38.808Z,96334.91
2018-01-17T04:58:06.470Z,96323.11
2018-01-17T05:00:34.143Z,96334.22
2018-01-17T05:03:01.783Z,96342.98
2018-01-17T05:05:29.436Z,96349.05
2018-01-17T05:07:57.053Z,96352.86
2018-01-17T05:10:24.650Z,96353.77
2018-01-17T05:12:52.328Z,96352.69
2018-01-17T05:15:20.020Z,96360.52
2018-01-17T05:17:47.644Z,96364.14
2018-01-17T05:20:15.374Z,96377.62
2018-01-17T05:22:43.065Z,96381.29
2018-01-17T05:25:10.783Z,96376.39
2018-01-17T05:27:38.428Z,96379.98
2018-01-17T05:30:06.079Z,96387.63
2018-01-17T05:32:33.828Z,96379.87
2018-01-17T05:35:01.616Z,96389.11
2018-01-17T05:37:29.224Z,96387.08
2018-01-17T05:39:56.854Z,96385.12
2018-01-17T05:42:24.484Z,96382.78
2018-01-17T05:44:52.113Z,96392.20
2018-01-17T05:47:19.758Z,96403.67
2018-01-17T05:49:47.356Z,96411.03
2018-01-17T05:52:14.974Z,96419.94
2018-01-17T05:54:42.674Z,96430.28
2018-01-17T05:57:10.446Z,96432.22
2018-01-17T05:59:38.059Z,96439.53
2018-01-17T06:02:05.900Z,96435.38
2018-01-17T06:04:33.540Z,96444.33
2018-01-17T06:07:01.240Z,96442.73
2018-01-17T06:09:28.856Z,96451.26
2018-01-17T06:11:56.535Z,96458.96
2018-01-17T06:14:24.155Z,96461.29
2018-01-17T06:16:51.881Z,96448.67
2018-01-17T06:19:19.499Z,96447.08
2018-01-17T06:21:47.120Z,96438.86
2018-01-17T06:24:14.899Z,96432.13
2018-01-17T06:26:42.604Z,96435.21
2018-01-17T06:29:10.245Z,96446.83
2018-01-17T06:31:37.875Z,96458.63
2018-01-17T06:34:05.498Z,96471.47
2018-01-17T06:36:33.130Z,96458.72
2018-01-17T06:39:00.811Z,96476.52
2018-01-17T06:41:28.520Z,96470.30
2018-01-17T06:43:56.229Z,96465.56
2018-01-17T06:46:23.856Z,96485.88
2018-01-17T06:48:51.748Z,96498.94
2018-01-17T06:51:19.530Z,96500.96
2018-01-17T06:53:47.126Z,96507.06
2018-01-17T06:56:14.919Z,96528.97
2018-01-17T06:58:42.530Z,96541.81
2018-01-17T07:01:10.218Z,96540.61
2018-01-17T07:03:37.844Z,96553.31
2018-01-17T07:06:05.475Z,96554.70
2018-01-17T07:08:33.091Z,96553.22
2018-01-17T07:11:00.756Z,96565.13
2018-01-17T07:13:28.400Z,96578.33
2018-01-17T07:15:56.056Z,96575.30
2018-01-17T07:18:23.666Z,96593.06
2018-01-17T07:20:51.299Z,96592.65
2018-01-17T07:23:18.935Z,96595.66
2018-01-17T07:25:46.540Z,96599.71
2018-01-17T07:28:14.176Z,96611.37
2018-01-17T07:30:41.966Z,96625.55
2018-01-17T07:33:09.629Z,96632.63
2018-01-17T07:35:37.415Z,96644.81
2018-01-17T07:38:05.065Z,96644.91
2018-01-17T07:40:32.760Z,96648.77
2018-01-17T07:43:00.614Z,96646.83
2018-01-17T07:45:28.250Z,96656.58
2018-01-17T07:47:55.912Z,96663.86
2018-01-17T07:50:23.545Z,96664.95
2018-01-17T07:52:51.270Z,96674.62
2018-01-17T07:55:18.904Z,96680.35
2018-01-17T07:57:46.540Z,96678.67
2018-01-17T08:00:14.239Z,96689.80
2018-01-17T08:02:41.920Z,96701.31
2018-01-17T08:05:09.626Z,96703.50
2018-01-17T08:07:37.254Z,96715.56
2018-01-17T08:10:05.111Z,96712.78
2018-01-17T08:12:32.750Z,96707.80
2018-01-17T08:15:00.356Z,96716.93
2018-01-17T08:17:28.154Z,96721.28
2018-01-17T08:19:55.895Z,96715.40
2018-01-17T08:22:23.601Z,96725.01
2018-01-17T08:24:51.221Z,96729.22
2018-01-17T08:27:18.926Z,96727.70
2018-01-17T08:29:46.630Z,96751.52
2018-01-17T08:32:14.240Z,96760.50
2018-01-17T08:34:41.856Z,96764.25
2018-01-17T08:37:09.536Z,96756.13
2018-01-17T08:39:37.194Z,96774.88
2018-01-17T08:42:04.832Z,96784.56
2018-01-17T08:44:32.482Z,96784.80
2018-01-17T08:47:00.175Z,96791.41
2018-01-17T08:49:27.814Z,96786.41
2018-01-17T08:51:55.454Z,96794.88
2018-01-17T08:54:23.355Z,96792.56
2018-01-17T08:56:50.975Z,96793.77
2018-01-17T08:59:18.640Z,96789.53
2018-01-17T09:01:46.382Z,96790.50
2018-01-17T09:04:14.257Z,96793.69
2018-01-17T09:06:41.863Z,96794.55
2018-01-17T09:09:09.446Z,96811.61
2018-01-17T09:11:37.087Z,96809.67
2018-01-17T09:14:04.735Z,96799.23
2018-01-17T09:16:32.605Z,96809.37
2018-01-17T09:19:00.338Z,96814.84
2018-01-17T09:21:28.220Z,96816.63
2018-01-17T09:23:55.976Z,96826.21
2018-01-17T09:26:23.625Z,96830.06
2018-01-17T09:28:51.291Z,96840.08
2018-01-17T09:31:18.963Z,96839.98
2018-01-17T09:33:46.690Z,96852.92
2018-01-17T09:36:14.315Z,96866.06
2018-01-17T09:38:41.992Z,96870.25
2018-01-17T09:41:09.802Z,96874.99
2018-01-17T09:43:37.410Z,96884.51
2018-01-17T09:46:05.056Z,96895.60
2018-01-17T09:48:32.671Z,96920.88
2018-01-17T09:51:00.292Z,96937.37
2018-01-17T09:53:27.919Z,96955.56
2018-01-17T09:55:55.720Z,96931.38
2018-01-17T09:58:23.540Z,96940.98
2018-01-17T10:00:51.191Z,96953.69
2018-01-17T10:03:18.882Z,96960.87
2018-01-17T10:05:46.622Z,96955.56
2018-01-17T10:08:14.287Z,96953.82
2018-01-17T10:10:41.924Z,96948.11
2018-01-17T10:13:09.526Z,96932.27
2018-01-17T10:15:37.230Z,96935.58
2018-01-17T10:18:04.895Z,96942.09
2018-01-17T10:20:32.505Z,96943.15
2018-01-17T10:23:00.257Z,96936.91
2018-01-17T10:25:27.902Z,96950.23
2018-01-17T10:27:55.528Z,96949.95
2018-01-17T10:30:23.297Z,96958.14
2018-01-17T10:32:51.053Z,96964.27
2018-01-17T10:35:18.685Z,96967.06
2018-01-17T10:37:46.297Z,96973.56
2018-01-17T10:40:14.145Z,96985.92
2018-01-17T10:42:41.862Z,96988.20
2018-01-17T10:45:09.507Z,97004.66
2018-01-17T10:47:37.235Z,97004.80
2018-01-17T10:50:04.835Z,97013.78
2018-01-17T10:52:32.533Z,97014.28
2018-01-17T10:55:00.191Z,97025.81
2018-01-17T10:57:27.810Z,97027.52
2018-01-17T10:59:55.602Z,97051.16
2018-01-17T11:02:23.311Z,97046.66
2018-01-17T11:04:50.952Z,97048.09
2018-01-17T11:07:18.552Z,97066.30
2018-01-17T11:09:46.319Z,97057.61
2018-01-17T11:12:13.967Z,97061.70
2018-01-17T11:14:41.601Z,97070.84
2018-01-17T11:17:09.358Z,97068.28
2018-01-17T11:19:37.027Z,97080.31
2018-01-17T11:22:04.812Z,97082.34
2018-01-17T11:24:32.504Z,97083.28
2018-01-17T11:27:00.148Z,97098.83
2018-01-17T11:29:27.794Z,97111.36
2018-01-17T11:31:55.503Z,97111.70
2018-01-17T11:34:23.296Z,97108.69
2018-01-17T11:36:50.896Z,97117.61
2018-01-17T11:39:18.557Z,97105.53
2018-01-17T11:41:46.161Z,97102.73
2018-01-17T11:44:13.896Z,97113.09
2018-01-17T11:46:41.567Z,97117.16
2018-01-17T11:49:09.183Z,97117.73
2018-01-17T11:51:36.797Z,97113.02
2018-01-17T11:54:04.507Z,97119.66
2018-01-17T11:56:32.131Z,97116.08
2018-01-17T11:58:59.845Z,97120.91
2018-01-17T12:01:27.485Z,97120.60
2018-01-17T12:03:55.172Z,97127.20
2018-01-17T12:06:22.971Z,97144.44
2018-01-17T12:08:50.641Z,97147.74
2018-01-17T12:11:18.261Z,97146.69
2018-01-17T12:13:45.922Z,97153.37
2018-01-17T12:16:13.751Z,97160.97
2018-01-17T12:18:41.460Z,97165.88
2018-01-17T12:21:09.325Z,97162.67
2018-01-17T12:23:36.966Z,97167.76
2018-01-17T12:26:04.616Z,97177.07
2018-01-17T12:28:32.343Z,97168.28
2018-01-17T12:31:00.032Z,97166.77
2018-01-17T12:33:27.670Z,97174.34
2018-01-17T12:35:55.276Z,97167.08
2018-01-17T12:38:23.057Z,97164.93
2018-01-17T12:40:50.864Z,97166.55
2018-01-17T12:43:18.512Z,97178.77
2018-01-17T12:45:46.288Z,97176.38
2018-01-17T12:48:13.947Z,97186.18
2018-01-17T12:50:41.575Z,97188.77
2018-01-17T12:53:09.286Z,97186.22
2018-01-17T12:55:36.931Z,97187.18
2018-01-17T12:58:04.716Z,97189.57
2018-01-17T13:00:32.386Z,97198.88
2018-01-17T13:03:00.026Z,97197.05
2018-01-17T13:05:27.680Z,97196.12
2018-01-17T13:07:55.291Z,97201.55
2018-01-17T13:10:23.953Z,97213.28
2018-01-17T13:12:51.668Z,97204.46
2018-01-17T13:15:19.422Z,97213.44
2018-01-17T13:17:47.063Z,97218.92
2018-01-17T13:20:14.666Z,97235.32
2018-01-17T13:22:42.292Z,97247.33
2018-01-17T13:25:10.196Z,97241.59
2018-01-17T13:27:37.869Z,97247.61
2018-01-17T13:30:05.493Z,97254.10
2018-01-17T13:32:33.287Z,97251.59
2018-01-17T13:35:00.910Z,97247.30
2018-01-17T13:37:28.732Z,97242.08
2018-01-17T13:39:56.463Z,97242.33
2018-01-17T13:42:24.281Z,97240.47
2018-01-17T13:44:52.007Z,97240.25
2018-01-17T13:47:19.932Z,97236.52
2018-01-17T13:49:47.643Z,97239.13
2018-01-17T13:52:15.283Z,97245.88
2018-01-17T13:54:42.956Z,97258.88
2018-01-17T13:57:10.820Z,97268.62
2018-01-17T13:59:38.437Z,97269.31
2018-01-17T14:02:06.126Z,97263.29
2018-01-17T14:04:33.865Z,97266.36
2018-01-17T14:07:01.597Z,97268.78
2018-01-17T14:09:29.241Z,97273.16
2018-01-17T14:11:56.861Z,97264.66
2018-01-17T14:14:24.713Z,97260.36
2018-01-17T14:16:52.332Z,97257.45
2018-01-17T14:19:19.992Z,97255.63
2018-01-17T14:21:47.648Z,97286.04
2018-01-17T14:24:15.292Z,97289.80
2018-01-17T14:26:43.207Z,97311.14
2018-01-17T14:29:10.838Z,97314.73
2018-01-17T14:31:38.467Z,97313.65
2018-01-17T14:34:06.096Z,97316.95
2018-01-17T14:36:33.726Z,97317.22
2018-01-17T14:39:01.340Z,97319.09
2018-01-17T14:41:29.139Z,97324.28
2018-01-17T14:43:56.761Z,97321.88
2018-01-17T14:46:24.371Z,97318.70
2018-01-17T14:48:52.026Z,97319.12
2018-01-17T14:51:19.671Z,97316.18
2018-01-17T14:53:47.385Z,97307.36
2018-01-17T14:56:15.122Z,97320.57
2018-01-17T14:58:42.747Z,97329.39
2018-01-17T15:01:10.386Z,97336.61
2018-01-17T15:03:38.032Z,97340.63
2018-01-17T15:06:05.792Z,97339.42
2018-01-17T15:08:33.496Z,97343.95
2018-01-17T15:11:01.253Z,97343.41
2018-01-17T15:13:28.864Z,97342.75
2018-01-17T15:15:56.504Z,97345.39
2018-01-17T15:18:24.143Z,97353.39
2018-01-17T15:20:51.787Z,97354.81
2018-01-17T15:23:19.521Z,97363.50
2018-01-17T15:25:47.231Z,97368.16
2018-01-17T15:28:14.872Z,97360.84
2018-01-17T15:30:42.536Z,97360.59
2018-01-17T15:33:10.196Z,97354.18
2018-01-17T15:35:37.812Z,97350.58
2018-01-17T15:38:05.428Z,97376.99
2018-01-17T15:40:33.088Z,97368.88
2018-01-17T15:43:00.732Z,97374.37
2018-01-17T15:45:28.357Z,97369.17
2018-01-17T15:47:56.058Z,97380.10
2018-01-17T15:50:23.930Z,97390.78
2018-01-17T15:52:51.561Z,97391.92
2018-01-17T15:55:19.246Z,97389.64
2018-01-17T15:57:46.869Z,97399.53
2018-01-17T16:00:14.491Z,97399.94
2018-01-17T16:02:42.287Z,97397.34
2018-01-17T16:05:10.001Z,97396.84
2018-01-17T16:07:37.803Z,97404.95
2018-01-17T16:10:05.472Z,97412.69
2018-01-17T16:12:33.311Z,97415.12
2018-01-17T16:15:00.951Z,97412.95
2018-01-17T16:17:28.711Z,97413.45
2018-01-17T16:19:56.433Z,97416.10
2018-01-17T16:22:24.243Z,97405.41
2018-01-17T16:24:51.874Z,97404.89
2018-01-17T16:27:19.482Z,97407.33
2018-01-17T16:29:47.111Z,97405.69
2018-01-17T16:32:14.907Z,97406.48
2018-01-17T16:34:42.547Z,97407.95
2018-01-17T16:37:10.177Z,97407.59
2018-01-17T16:39:37.822Z,97414.65
2018-01-17T16:42:05.512Z,97426.79
2018-01-17T16:44:33.420Z,97430.66
2018-01-17T16:47:01.039Z,97438.45
2018-01-17T16:49:28.902Z,97434.14
2018-01-17T16:51:56.548Z,97438.14
2018-01-17T16:54:24.269Z,97436.95
2018-01-17T16:56:51.968Z,97432.39
2018-01-17T16:59:19.611Z,97445.70
2018-01-17T17:01:47.227Z,97448.00
2018-01-17T17:04:14.868Z,97456.53
2018-01-17T17:06:42.544Z,97453.02
2018-01-17T17:09:10.263Z,97452.99
2018-01-17T17:11:37.943Z,97456.23
2018-01-17T17:14:05.574Z,97447.44
2018-01-17T17:16:33.283Z,97457.45
2018-01-17T17:19:01.050Z,97457.97
2018-01-17T17:21:28.678Z,97462.50
2018-01-17T17:23:56.391Z,97458.88
2018-01-17T17:26:24.003Z,97467.49
2018-01-17T17:28:51.774Z,97468.30
2018-01-17T17:31:19.432Z,97462.07
2018-01-17T17:33:47.123Z,97470.47
2018-01-17T17:36:14.892Z,97472.96
2018-01-17T17:38:42.514Z,97474.69
2018-01-17T17:41:10.270Z,97487.88
2018-01-17T17:43:37.942Z,97483.45
2018-01-17T17:46:05.767Z,97493.22
2018-01-17T17:48:33.384Z,97494.77
2018-01-17T17:51:01.025Z,97503.18
2018-01-17T17:53:28.648Z,97502.42
2018-01-17T17:55:56.370Z,97514.05
2018-01-17T17:58:24.059Z,97519.50
2018-01-17T18:00:51.918Z,97517.52
2018-01-17T18:03:19.528Z,97527.73
2018-01-17T18:05:47.201Z,97529.20
2018-01-17T18:08:14.990Z,97537.05
2018-01-17T18:10:44.242Z,97537.20
2018-01-17T18:13:11.868Z,97539.77
2018-01-17T18:15:39.707Z,97539.91
2018-01-17T18:18:07.573Z,97555.81
2018-01-17T18:20:35.217Z,97568.78
2018-01-17T18:23:02.956Z,97582.53
2018-01-17T18:25:30.651Z,97593.48
2018-01-17T18:27:58.384Z,97608.23
2018-01-17T18:30:26.297Z,97600.75
2018-01-17T18:32:54.209Z,97601.84
2018-01-17T18:35:21.838Z,97605.61
2018-01-17T18:37:49.497Z,97609.96
2018-01-17T18:40:17.264Z,97614.39
2018-01-17T18:42:44.958Z,97614.03
2018-01-17T18:45:12.666Z,97611.41
2018-01-17T18:47:40.343Z,97606.04
2018-01-17T18:50:08.055Z,97603.38
2018-01-17T18:52:35.691Z,97609.81
2018-01-17T18:55:03.529Z,97611.34
2018-01-17T18:57:31.334Z,97614.81
2018-01-17T18:59:59.056Z,97631.02
2018-01-17T19:02:26.816Z,97627.17
2018-01-17T19:04:54.687Z,97627.81
2018-01-17T19:07:22.437Z,97629.67
2018-01-17T19:09:50.068Z,97630.27
2018-01-17T19:12:17.720Z,97627.61
2018-01-17T19:14:45.528Z,97628.75
2018-01-17T19:17:13.209Z,97634.69
2018-01-17T19:19:40.828Z,97632.48
2018-01-17T19:22:08.637Z,97633.63
2018-01-17T19:24:36.532Z,97639.08
2018-01-17T19:27:04.209Z,97645.95
2018-01-17T19:29:31.842Z,97649.05
2018-01-17T19:31:59.683Z,97649.72
2018-01-17T19:34:27.349Z,97664.92
2018-01-17T19:36:55.041Z,97670.67
2018-01-17T19:39:22.775Z,97669.91
2018-01-17T19:41:50.439Z,97672.64
2018-01-17T19:44:18.094Z,97665.78
2018-01-17T19:46:45.703Z,97670.11
2018-01-17T19:49:13.382Z,97681.94
2018-01-17T19:51:41.051Z,97678.73
2018-01-17T19:54:08.682Z,97677.09
2018-01-17T19:56:36.340Z,97676.55
2018-01-17T19:59:04.037Z,97680.42
2018-01-17T20:01:31.862Z,97681.09
2018-01-17T20:03:59.703Z,97683.33
2018-01-17T20:06:27.683Z,97687.36
2018-01-17T20:08:55.327Z,97696.67
2018-01-17T20:11:23.262Z,97693.43
2018-01-17T20:13:51.162Z,97695.27
2018-01-17T20:16:18.808Z,97693.09
2018-01-17T20:18:46.482Z,97689.09
2018-01-17T20:21:14.123Z,97688.22
2018-01-17T20:23:41.807Z,97685.33
2018-01-17T20:26:09.457Z,97696.16
2018-01-17T20:28:37.176Z,97697.33
2018-01-17T20:31:04.928Z,97696.38
2018-01-17T20:33:32.627Z,97699.89
2018-01-17T20:36:00.245Z,97710.34
2018-01-17T20:38:27.927Z,97706.50
2018-01-17T20:40:55.669Z,97708.65
2018-01-17T20:43:23.307Z,97706.83
2018-01-17T20:45:50.922Z,97703.72
2018-01-17T20:48:18.592Z,97704.51
2018-01-17T20:50:46.302Z,97713.55
2018-01-17T20:53:13.996Z,97716.59
2018-01-17T20:55:41.783Z,97710.41
2018-01-17T20:58:09.407Z,97715.03
2018-01-17T21:00:37.037Z,97721.61
2018-01-17T21:03:04.644Z,97718.65
2018-01-17T21:05:32.282Z,97722.48
2018-01-17T21:07:59.942Z,97727.52
2018-01-17T21:10:27.593Z,97728.33
2018-01-17T21:12:55.258Z,97730.45
2018-01-17T21:15:22.948Z,97735.97
2018-01-17T21:17:50.721Z,97744.26
2018-01-17T21:20:18.348Z,97742.45
2018-01-17T21:22:46.032Z,97740.45
2018-01-17T21:25:13.708Z,97760.22
2018-01-17T21:27:41.417Z,97758.90
2018-01-17T21:30:09.091Z,97773.08
2018-01-17T21:32:36.743Z,97760.62
2018-01-17T21:35:04.508Z,97753.06
2018-01-17T21:37:32.198Z,97747.74
2018-01-17T21:39:59.846Z,97752.26
2018-01-17T21:42:33.157Z,97748.25
2018-01-17T21:45:06.543Z,97751.35
2018-01-17T21:47:34.186Z,97764.69
2018-01-17T21:50:01.987Z,97761.02
2018-01-17T21:52:29.632Z,97763.69
2018-01-17T21:54:57.273Z,97764.41
2018-01-17T21:57:24.919Z,97762.81
2018-01-17T21:59:52.718Z,97753.91
2018-01-17T22:02:20.328Z,97756.60
2018-01-17T22:04:48.013Z,97750.38
2018-01-17T22:07:15.640Z,97746.77
2018-01-17T22:09:43.327Z,97754.18
2018-01-17T22:12:10.978Z,97742.93
2018-01-17T22:14:38.847Z,97742.81
2018-01-17T22:17:06.682Z,97749.34
2018-01-17T22:19:34.283Z,97733.81
2018-01-17T22:22:01.917Z,97742.20
2018-01-17T22:24:29.723Z,97738.41
2018-01-17T22:26:57.360Z,97744.67
2018-01-17T22:29:25.070Z,97738.50
2018-01-17T22:31:52.697Z,97736.75
2018-01-17T22:34:20.312Z,97736.48
2018-01-17T22:36:47.952Z,97732.58
2018-01-17T22:39:15.572Z,97738.27
2018-01-17T22:41:43.197Z,97738.79
2018-01-17T22:44:10.817Z,97741.88
2018-01-17T22:46:38.583Z,97736.59
2018-01-17T22:49:06.180Z,97739.28
2018-01-17T22:51:34.741Z,97738.39
2018-01-17T22:54:02.367Z,97737.31
2018-01-17T22:56:29.982Z,97743.86
2018-01-17T22:58:57.617Z,97743.62
2018-01-17T23:01:25.496Z,97737.21
2018-01-17T23:03:53.128Z,97735.63
2018-01-17T23:06:20.799Z,97733.64
2018-01-17T23:08:48.414Z,97733.34
2018-01-17T23:11:16.050Z,97725.83
2018-01-17T23:13:43.753Z,97728.16
2018-01-17T23:16:11.458Z,97734.20
2018-01-17T23:18:39.083Z,97731.73
2018-01-17T23:21:06.693Z,97736.13
2018-01-17T23:23:34.523Z,97738.05
2018-01-17T23:26:02.123Z,97726.30
2018-01-17T23:28:29.727Z,97724.10
2018-01-17T23:30:57.365Z,97726.02
2018-01-17T23:33:25.147Z,97722.56
2018-01-17T23:35:52.804Z,97719.05
2018-01-17T23:38:20.472Z,97726.84
2018-01-17T23:40:48.885Z,97723.02
2018-01-17T23:43:16.507Z,97730.58
2018-01-17T23:45:44.163Z,97729.60
2018-01-17T23:48:11.793Z,97718.36
2018-01-17T23:50:39.507Z,97720.70
2018-01-17T23:53:07.177Z,97713.44
2018-01-17T23:55:34.906Z,97704.45
2018-01-17T23:58:02.518Z,97702.64
